Time;durP1;ratioP1;P1;durP2;ratioP2;P2;SDS_P1;SDS_P2;PMS_P1;PMS_P2;Temp;Humidity;BMP_temperature;BMP_pressure;BME280_temperature;BME280_humidity;BME280_pressure;Samples;Min_cycle;Max_cycle;Signal;HPM_P1;HPM_P2
2022/08/22 00:00:16;;;;;;;;;3.00;2.00;;;;;21.06;54.88;100647.75;5080109;27;45414;-76
2022/08/22 00:03:07;;;;;;;;;4.25;1.75;;;;;21.07;54.69;100644.13;5072202;27;45458;-75
2022/08/22 00:06:08;;;;;;;;;6.00;3.00;;;;;21.07;54.80;100648.63;5073695;27;45513;-75
2022/08/22 00:09:04;;;;;;;;;2.25;2.25;;;;;21.05;54.92;100648.72;5077872;27;45597;-76
2022/08/22 00:11:35;;;;;;;;;2.00;2.00;;;;;21.03;55.07;100645.28;5067282;27;45340;-76
2022/08/22 00:14:16;;;;;;;;;3.00;2.00;;;;;21.03;55.00;100639.91;5072587;27;45414;-77
2022/08/22 00:17:26;;;;;;;;;2.50;1.50;;;;;21.02;54.80;100635.47;5067317;27;45429;-75
2022/08/22 00:20:07;;;;;;;;;2.75;2.75;;;;;21.01;54.90;100632.88;5075949;28;45541;-76
2022/08/22 00:22:43;;;;;;;;;2.00;2.00;;;;;20.99;54.86;100632.13;5084207;27;46366;-76
2022/08/22 00:25:19;;;;;;;;;4.00;2.75;;;;;20.97;54.91;100618.78;5082349;27;45461;-76
2022/08/22 00:27:55;;;;;;;;;2.00;1.00;;;;;20.98;55.00;100622.34;5087640;27;45383;-77
2022/08/22 00:30:21;;;;;;;;;1.75;1.75;;;;;20.96;54.93;100609.00;5078880;27;45490;-76
2022/08/22 00:32:57;;;;;;;;;1.75;1.75;;;;;20.96;55.04;100622.44;5076522;27;46064;-75
2022/08/22 00:35:37;;;;;;;;;2.25;2.00;;;;;20.92;54.92;100611.03;5081473;28;45487;-76
2022/08/22 00:38:34;;;;;;;;;1.25;1.25;;;;;20.93;54.65;100614.56;5077871;27;45497;-76
2022/08/22 00:41:09;;;;;;;;;1.50;1.50;;;;;20.91;54.64;100608.44;5053310;27;45462;-75
2022/08/22 00:43:52;;;;;;;;;5.00;3.25;;;;;20.89;54.98;100611.22;5085328;27;46890;-77
2022/08/22 00:46:18;;;;;;;;;2.00;2.00;;;;;20.88;54.74;100624.75;5077486;27;45386;-76
2022/08/22 00:48:58;;;;;;;;;2.50;2.50;;;;;20.85;54.85;100624.94;5077518;28;45283;-77
2022/08/22 00:51:53;;;;;;;;;1.00;1.00;;;;;20.84;54.82;100623.19;5077408;27;45496;-76
2022/08/22 00:54:40;;;;;;;;;3.00;1.75;;;;;20.82;54.61;100620.59;5075939;27;46286;-75
2022/08/22 00:57:21;;;;;;;;;1.75;1.75;;;;;20.79;54.16;100626.19;5076839;28;45481;-75
2022/08/22 00:59:46;;;;;;;;;2.00;2.00;;;;;20.76;54.51;100621.84;5077139;27;45577;-76
2022/08/22 01:02:36;;;;;;;;;2.00;1.00;;;;;20.76;54.89;100616.47;5087166;27;45416;-76
2022/08/22 01:05:36;;;;;;;;;3.25;1.00;;;;;20.77;54.67;100623.59;5082847;27;45422;-75
2022/08/22 01:08:21;;;;;;;;;2.00;2.00;;;;;20.73;54.83;100630.09;5078575;28;45527;-76
2022/08/22 01:11:05;;;;;;;;;3.00;2.75;;;;;20.72;54.90;100633.72;5084967;27;45564;-74
2022/08/22 01:13:57;;;;;;;;;2.00;2.00;;;;;20.69;54.58;100636.59;5076487;27;45307;-76
2022/08/22 01:16:31;;;;;;;;;2.25;2.00;;;;;20.66;54.77;100630.56;5075295;27;45454;-75
2022/08/22 01:19:35;;;;;;;;;1.50;1.50;;;;;20.64;54.34;100630.63;5075765;27;45474;-76
2022/08/22 01:22:15;;;;;;;;;0.50;0.50;;;;;20.65;54.17;100628.81;5029572;28;45463;-75
2022/08/22 01:25:18;;;;;;;;;3.00;2.00;;;;;20.63;54.21;100631.56;5013282;28;45482;-76
2022/08/22 01:28:33;;;;;;;;;1.00;1.00;;;;;20.64;53.80;100621.72;5004032;28;46315;-75
2022/08/22 01:31:27;;;;;;;;;1.25;1.25;;;;;20.52;53.66;100612.59;4935722;28;45670;-75
2022/08/22 01:34:14;;;;;;;;;3.00;1.25;;;;;20.59;53.57;100624.69;4936100;28;45429;-76
2022/08/22 01:36:45;;;;;;;;;1.25;0.75;;;;;20.55;53.22;100609.72;4951623;28;45672;-75
2022/08/22 01:39:24;;;;;;;;;1.25;0.25;;;;;20.52;53.11;100613.44;4937558;28;46793;-76
2022/08/22 01:41:58;;;;;;;;;2.00;2.00;;;;;20.51;53.04;100613.53;4921400;28;45703;-77
2022/08/22 01:44:47;;;;;;;;;1.75;1.75;;;;;20.49;53.13;100613.63;4935262;28;45422;-76
2022/08/22 01:47:25;;;;;;;;;3.50;2.00;;;;;20.42;53.07;100597.06;4937278;28;45501;-76
2022/08/22 01:50:01;;;;;;;;;3.00;2.00;;;;;20.44;53.23;100594.28;4949871;28;46425;-77
2022/08/22 01:52:43;;;;;;;;;1.50;1.50;;;;;20.45;53.05;100601.34;4931308;28;45384;-75
2022/08/22 01:55:19;;;;;;;;;1.25;1.25;;;;;20.40;53.30;100598.94;4950767;28;45567;-75
2022/08/22 01:57:57;;;;;;;;;1.00;1.00;;;;;20.41;53.22;100600.69;4920598;28;45432;-75
2022/08/22 02:00:26;;;;;;;;;1.00;1.00;;;;;20.35;53.16;100594.84;4985234;28;47521;-74
2022/08/22 02:03:16;;;;;;;;;1.00;1.00;;;;;20.35;53.29;100601.06;4995822;28;45440;-75
2022/08/22 02:06:16;;;;;;;;;1.00;1.00;;;;;20.32;53.50;100611.97;5016077;28;45531;-75
2022/08/22 02:08:42;;;;;;;;;1.00;1.00;;;;;20.31;53.26;100610.25;5070624;27;45474;-75
2022/08/22 02:11:11;;;;;;;;;0.75;0.75;;;;;20.30;53.32;100611.22;5087407;27;46286;-77
2022/08/22 02:13:47;;;;;;;;;2.50;0.75;;;;;20.28;53.51;100610.44;5080025;27;45402;-76
2022/08/22 02:16:15;;;;;;;;;0.50;0.50;;;;;20.27;53.46;100607.84;5070531;27;45445;-76
2022/08/22 02:18:53;;;;;;;;;4.00;2.00;;;;;20.29;53.26;100606.81;5077069;27;45587;-76
2022/08/22 02:21:31;;;;;;;;;1.00;1.00;;;;;20.26;53.07;100611.50;5075193;28;45538;-75
2022/08/22 02:24:13;;;;;;;;;1.00;1.00;;;;;20.26;53.39;100608.81;5074774;27;45456;-77
2022/08/22 02:26:44;;;;;;;;;1.25;1.25;;;;;20.23;53.43;100615.22;5075200;28;45425;-75
2022/08/22 02:29:14;;;;;;;;;1.50;1.50;;;;;20.14;53.14;100607.72;5075270;27;45277;-76
2022/08/22 02:31:47;;;;;;;;;1.50;0.00;;;;;20.19;52.93;100613.66;5076461;28;46292;-75
2022/08/22 02:34:35;;;;;;;;;1.00;1.00;;;;;20.18;53.60;100598.53;5077136;28;45392;-75
2022/08/22 02:37:16;;;;;;;;;1.00;1.00;;;;;20.14;53.49;100605.03;5090661;27;45383;-75
2022/08/22 02:39:55;;;;;;;;;0.00;0.00;;;;;20.10;53.83;100608.84;5078186;27;45587;-77
2022/08/22 02:42:47;;;;;;;;;2.00;2.00;;;;;20.09;53.89;100615.16;5075515;27;46278;-76
2022/08/22 02:45:28;;;;;;;;;1.00;1.00;;;;;20.04;54.00;100610.06;5082517;27;45485;-76
2022/08/22 02:48:24;;;;;;;;;1.75;1.75;;;;;20.03;54.08;100611.91;5077868;27;45651;-75
2022/08/22 02:51:11;;;;;;;;;1.50;0.75;;;;;20.06;53.98;100611.72;5074698;28;45472;-75
2022/08/22 02:53:48;;;;;;;;;1.00;0.00;;;;;20.04;54.08;100604.69;5075167;28;46295;-76
2022/08/22 02:56:26;;;;;;;;;1.00;1.00;;;;;20.04;53.99;100604.69;5074667;27;45521;-74
2022/08/22 02:59:10;;;;;;;;;0.75;0.75;;;;;20.02;53.93;100610.16;5074700;27;45426;-75
2022/08/22 03:01:41;;;;;;;;;1.00;1.00;;;;;20.00;54.21;100612.09;5080444;27;45475;-75
2022/08/22 03:04:30;;;;;;;;;2.25;2.00;;;;;19.96;54.29;100615.88;5083169;27;45531;-76
2022/08/22 03:07:05;;;;;;;;;3.50;3.00;;;;;19.91;54.28;100607.25;5074547;27;45536;-75
2022/08/22 03:09:44;;;;;;;;;3.50;1.50;;;;;19.88;54.46;100607.44;5078938;27;45510;-76
2022/08/22 03:12:28;;;;;;;;;1.00;0.00;;;;;19.81;54.50;100592.66;5076087;27;45545;-75
2022/08/22 03:15:00;;;;;;;;;0.25;0.25;;;;;19.81;54.57;100603.38;5075399;27;46295;-76
2022/08/22 03:17:33;;;;;;;;;6.50;2.00;;;;;19.77;54.70;100599.09;5073373;27;45655;-75
2022/08/22 03:20:34;;;;;;;;;1.25;1.25;;;;;19.76;54.86;100602.75;5074601;28;45462;-75
2022/08/22 03:23:09;;;;;;;;;1.50;1.00;;;;;19.71;55.08;100611.94;5072673;27;45532;-76
2022/08/22 03:26:05;;;;;;;;;0.25;0.25;;;;;19.70;55.13;100610.19;5083996;27;46230;-76
2022/08/22 03:28:42;;;;;;;;;3.50;2.25;;;;;19.67;55.66;100615.72;5075236;27;45382;-75
2022/08/22 03:31:07;;;;;;;;;1.00;1.00;;;;;19.65;55.91;100612.28;5076661;27;45426;-76
2022/08/22 03:33:33;;;;;;;;;5.50;4.00;;;;;19.55;55.94;100597.66;5091579;27;45609;-75
2022/08/22 03:36:05;;;;;;;;;2.75;1.50;;;;;19.61;56.14;100604.50;5089465;27;46310;-76
2022/08/22 03:38:30;;;;;;;;;2.25;2.25;;;;;19.60;56.20;100592.94;5089850;27;45363;-75
2022/08/22 03:41:22;;;;;;;;;2.75;1.75;;;;;19.60;56.30;100609.00;5076564;27;45810;-76
2022/08/22 03:43:48;;;;;;;;;2.25;1.75;;;;;19.59;56.32;100606.41;5075423;27;45457;-76
2022/08/22 03:46:16;;;;;;;;;2.00;2.00;;;;;19.57;56.72;100603.81;5075488;27;45548;-75
2022/08/22 03:49:28;;;;;;;;;3.00;1.75;;;;;19.55;56.74;100600.34;5062137;27;45461;-76
2022/08/22 03:52:10;;;;;;;;;1.25;1.25;;;;;19.51;56.97;100599.66;5079952;27;45466;-76
2022/08/22 03:54:38;;;;;;;;;1.00;1.00;;;;;19.50;57.07;100597.06;5077908;27;45394;-76
2022/08/22 03:57:55;;;;;;;;;3.00;2.00;;;;;19.49;57.01;100595.34;5077799;28;46561;-75
2022/08/22 04:00:42;;;;;;;;;3.75;2.25;;;;;19.46;57.06;100590.16;5016068;28;45467;-76
2022/08/22 04:03:45;;;;;;;;;2.00;2.00;;;;;19.41;57.46;100592.25;5016015;28;45446;-75
2022/08/22 04:07:06;;;;;;;;;2.00;2.00;;;;;19.30;57.48;100574.94;5014798;28;45436;-74
2022/08/22 04:09:56;;;;;;;;;3.00;2.00;;;;;19.31;57.76;100587.41;4979437;28;46557;-74
2022/08/22 04:13:01;;;;;;;;;0.50;0.50;;;;;19.26;57.82;100578.75;4974382;28;45338;-77
2022/08/22 04:15:47;;;;;;;;;1.75;1.75;;;;;19.21;57.85;100569.22;4896927;29;45697;-77
2022/08/22 04:18:15;;;;;;;;;2.50;2.25;;;;;19.21;58.19;100578.16;4897653;29;45682;-76
2022/08/22 04:20:59;;;;;;;;;3.50;3.50;;;;;19.20;57.91;100583.59;4897447;28;46401;-77
2022/08/22 04:24:01;;;;;;;;;3.25;2.25;;;;;19.17;58.24;100592.66;4906710;28;45502;-76
2022/08/22 04:26:41;;;;;;;;;2.00;2.00;;;;;19.15;58.42;100592.75;4910655;28;45440;-76
2022/08/22 04:29:33;;;;;;;;;1.00;1.00;;;;;19.13;58.39;100589.31;4897686;28;45535;-76
2022/08/22 04:32:13;;;;;;;;;4.25;2.50;;;;;19.09;58.29;100584.19;4902475;28;45709;-75
2022/08/22 04:34:48;;;;;;;;;4.00;2.00;;;;;19.06;58.57;100577.19;4908663;28;45408;-75
2022/08/22 04:37:28;;;;;;;;;3.00;1.25;;;;;19.04;58.78;100578.22;4941338;28;45544;-76
2022/08/22 04:40:24;;;;;;;;;5.00;3.75;;;;;19.05;58.50;100588.00;4964098;28;45421;-77
2022/08/22 04:43:00;;;;;;;;;2.00;2.00;;;;;19.00;58.40;100583.75;4991156;28;45948;-77
2022/08/22 04:45:33;;;;;;;;;1.75;1.00;;;;;18.98;58.28;100576.75;4994030;28;45515;-77
2022/08/22 04:48:11;;;;;;;;;1.25;1.25;;;;;18.99;58.71;100576.69;4994144;28;45300;-76
2022/08/22 04:50:53;;;;;;;;;2.75;2.50;;;;;18.98;58.63;100585.66;4993082;28;45623;-75
2022/08/22 04:53:37;;;;;;;;;2.00;2.00;;;;;18.98;58.92;100588.31;5039205;28;45543;-75
2022/08/22 04:56:06;;;;;;;;;2.00;1.50;;;;;19.02;58.80;100598.88;5062609;28;45366;-75
2022/08/22 04:58:54;;;;;;;;;7.00;3.25;;;;;18.96;58.98;100603.63;5058560;28;45505;-76
2022/08/22 05:01:36;;;;;;;;;3.25;1.75;;;;;18.98;58.65;100607.06;5059980;27;45634;-76
2022/08/22 05:04:09;;;;;;;;;2.00;2.00;;;;;18.97;58.58;100597.31;5081594;27;45451;-76
2022/08/22 05:06:42;;;;;;;;;4.00;3.00;;;;;19.02;58.30;100599.72;5080312;27;45418;-75
2022/08/22 05:09:16;;;;;;;;;1.00;1.00;;;;;19.05;58.29;100602.22;5089906;27;45334;-75
2022/08/22 05:11:42;;;;;;;;;2.75;2.75;;;;;19.09;58.32;100616.34;5076486;27;45395;-77
2022/08/22 05:14:17;;;;;;;;;3.00;2.50;;;;;19.11;58.56;100622.47;5076653;27;45368;-74
2022/08/22 05:16:48;;;;;;;;;2.00;1.75;;;;;19.16;58.28;100636.47;5077280;27;45470;-75
2022/08/22 05:19:21;;;;;;;;;3.00;3.00;;;;;19.22;57.90;100620.06;5076488;27;45524;-77
2022/08/22 05:21:49;;;;;;;;;3.50;2.00;;;;;19.34;57.94;100614.03;5077127;28;45398;-76
2022/08/22 05:24:41;;;;;;;;;1.50;1.50;;;;;19.42;57.95;100607.34;5075974;28;46202;-76
2022/08/22 05:27:15;;;;;;;;;3.50;1.25;;;;;19.55;57.03;100611.06;5076806;28;45578;-75
2022/08/22 05:29:46;;;;;;;;;3.00;3.00;;;;;19.63;57.05;100608.84;5081399;27;45489;-76
2022/08/22 05:32:24;;;;;;;;;2.00;2.00;;;;;19.78;56.88;100625.00;5085141;27;45569;-76
2022/08/22 05:35:02;;;;;;;;;3.00;1.00;;;;;19.90;56.87;100623.44;5091420;27;45380;-75
2022/08/22 05:37:34;;;;;;;;;3.50;2.50;;;;;19.99;56.48;100626.44;5078079;27;45378;-76
2022/08/22 05:40:00;;;;;;;;;1.75;1.00;;;;;20.33;56.14;100632.50;5080777;28;45426;-75
2022/08/22 05:42:32;;;;;;;;;2.00;2.00;;;;;20.57;54.61;100631.97;5081473;27;45600;-75
2022/08/22 05:45:01;;;;;;;;;6.25;3.00;;;;;20.60;54.87;100637.13;5081621;27;45466;-75
2022/08/22 05:47:38;;;;;;;;;6.00;3.25;;;;;20.51;54.94;100635.91;5080653;27;45548;-73
2022/08/22 05:50:11;;;;;;;;;1.00;1.00;;;;;20.44;55.21;100641.69;5076475;27;45469;-76
2022/08/22 05:52:51;;;;;;;;;2.25;2.25;;;;;20.46;54.96;100645.19;5071341;27;45391;-75
2022/08/22 05:55:23;;;;;;;;;2.75;1.50;;;;;20.44;55.26;100634.53;5075425;27;46665;-75
2022/08/22 05:57:59;;;;;;;;;2.00;1.00;;;;;20.50;55.59;100627.94;5079236;27;45504;-76
2022/08/22 06:00:31;;;;;;;;;3.25;3.25;;;;;20.50;55.16;100631.47;5075210;27;45575;-76
2022/08/22 06:03:07;;;;;;;;;6.00;2.00;;;;;20.57;54.68;100640.00;5075663;27;45494;-76
2022/08/22 06:05:40;;;;;;;;;4.75;1.75;;;;;20.66;54.57;100652.06;5067297;27;45761;-77
2022/08/22 06:08:47;;;;;;;;;3.00;2.75;;;;;20.72;54.58;100644.47;5078366;27;45478;-76
2022/08/22 06:11:31;;;;;;;;;2.75;2.75;;;;;20.80;54.56;100645.81;5072461;27;45532;-75
2022/08/22 06:14:22;;;;;;;;;3.00;3.00;;;;;20.85;54.40;100646.44;5059894;27;45393;-77
2022/08/22 06:17:16;;;;;;;;;2.75;2.75;;;;;20.91;54.54;100652.25;5068911;27;45865;-76
2022/08/22 06:19:48;;;;;;;;;2.25;2.00;;;;;20.90;54.46;100629.03;5029861;28;45493;-77
2022/08/22 06:22:37;;;;;;;;;4.00;3.00;;;;;21.00;53.86;100640.09;5075131;27;45513;-76
2022/08/22 06:25:14;;;;;;;;;3.75;3.00;;;;;21.06;54.48;100631.66;5074908;27;45376;-76
2022/08/22 06:27:41;;;;;;;;;5.50;3.00;;;;;21.29;53.19;100642.75;5056545;28;45499;-75
2022/08/22 06:30:12;;;;;;;;;2.25;2.25;;;;;21.44;53.35;100641.78;5074915;28;45529;-75
2022/08/22 06:32:43;;;;;;;;;2.50;1.25;;;;;21.58;52.70;100642.75;5073901;27;45378;-76
2022/08/22 06:35:19;;;;;;;;;2.00;2.00;;;;;21.65;53.24;100641.34;5074879;28;45489;-77
2022/08/22 06:37:47;;;;;;;;;5.25;3.25;;;;;21.73;53.46;100659.69;5075522;28;46051;-75
2022/08/22 06:40:15;;;;;;;;;1.50;1.50;;;;;21.77;52.56;100650.44;5083012;27;45555;-76
2022/08/22 06:42:45;;;;;;;;;2.75;2.75;;;;;21.78;52.24;100644.97;5075224;28;45524;-76
2022/08/22 06:45:21;;;;;;;;;4.50;3.25;;;;;21.83;52.13;100656.31;5074822;27;45405;-75
2022/08/22 06:48:15;;;;;;;;;3.75;3.75;;;;;21.85;52.84;100647.25;5076785;27;45515;-75
2022/08/22 06:50:44;;;;;;;;;3.25;2.00;;;;;21.93;51.95;100651.16;5071794;27;45484;-76
2022/08/22 06:53:40;;;;;;;;;4.75;3.75;;;;;22.04;52.05;100642.38;5079550;27;45500;-75
2022/08/22 06:56:06;;;;;;;;;3.00;3.00;;;;;22.17;52.16;100643.28;5074991;27;45462;-76
2022/08/22 06:58:46;;;;;;;;;2.00;2.00;;;;;22.35;51.60;100640.34;5074677;27;45831;-75
2022/08/22 07:01:16;;;;;;;;;2.75;2.75;;;;;22.57;50.96;100636.16;5080294;27;45377;-76
2022/08/22 07:03:51;;;;;;;;;1.25;1.25;;;;;22.77;50.71;100634.75;5070254;28;45448;-75
2022/08/22 07:06:41;;;;;;;;;2.25;2.25;;;;;23.06;51.05;100641.66;5078676;27;45502;-75
2022/08/22 07:09:26;;;;;;;;;1.00;1.00;;;;;23.49;48.67;100643.09;5077675;27;46133;-74
2022/08/22 07:11:55;;;;;;;;;2.75;2.75;;;;;23.80;47.17;100651.63;5074113;27;45544;-76
2022/08/22 07:14:27;;;;;;;;;3.25;3.00;;;;;23.83;47.51;100656.78;5068013;27;45472;-76
2022/08/22 07:16:54;;;;;;;;;3.00;3.00;;;;;23.75;47.79;100659.19;5074051;28;45471;-76
2022/08/22 07:19:39;;;;;;;;;3.25;2.25;;;;;23.65;47.88;100661.69;5074806;28;45512;-76
2022/08/22 07:22:12;;;;;;;;;3.25;3.00;;;;;23.65;47.30;100663.53;5073719;28;45451;-77
2022/08/22 07:24:46;;;;;;;;;1.25;1.25;;;;;23.65;46.95;100663.53;5073639;28;45453;-76
2022/08/22 07:27:40;;;;;;;;;3.00;2.00;;;;;23.65;46.97;100672.50;5073976;28;45284;-76
2022/08/22 07:30:08;;;;;;;;;2.25;2.25;;;;;23.60;46.97;100674.69;5071871;28;46245;-76
2022/08/22 07:32:58;;;;;;;;;4.25;2.75;;;;;23.53;47.46;100668.00;5074296;27;45410;-77
2022/08/22 07:35:40;;;;;;;;;2.25;1.00;;;;;23.58;47.73;100674.78;5074194;28;45406;-76
2022/08/22 07:38:31;;;;;;;;;2.50;2.25;;;;;23.56;47.31;100671.34;5074438;28;45453;-76
2022/08/22 07:41:10;;;;;;;;;2.75;2.00;;;;;23.58;47.98;100673.94;5076047;27;45998;-76
2022/08/22 07:43:39;;;;;;;;;3.00;2.50;;;;;23.62;47.52;100672.72;5074189;27;45520;-76
2022/08/22 07:46:10;;;;;;;;;1.00;1.00;;;;;23.72;47.27;100671.06;5073212;27;45493;-77
2022/08/22 07:48:45;;;;;;;;;2.00;1.25;;;;;23.83;46.92;100662.19;5074504;28;45425;-76
2022/08/22 07:51:18;;;;;;;;;2.25;1.00;;;;;23.97;46.67;100668.41;5073410;27;46165;-77
2022/08/22 07:53:54;;;;;;;;;1.00;1.00;;;;;24.00;46.57;100676.28;5073790;28;45376;-76
2022/08/22 07:56:27;;;;;;;;;1.50;1.50;;;;;24.03;46.42;100681.44;5073499;28;45418;-78
2022/08/22 07:58:57;;;;;;;;;2.00;2.00;;;;;23.99;46.35;100670.03;5072891;28;45549;-76
2022/08/22 08:01:25;;;;;;;;;1.00;1.00;;;;;23.98;46.93;100670.16;5073993;28;46061;-77
2022/08/22 08:04:15;;;;;;;;;0.75;0.75;;;;;23.99;46.43;100672.72;5074067;27;45462;-77
2022/08/22 08:06:45;;;;;;;;;3.00;3.00;;;;;24.07;47.06;100680.25;5074298;28;45441;-75
2022/08/22 08:09:14;;;;;;;;;2.75;2.25;;;;;24.15;46.68;100668.88;5078376;27;45605;-77
2022/08/22 08:11:42;;;;;;;;;2.50;2.50;;;;;24.32;46.37;100672.97;5076727;27;46390;-76
2022/08/22 08:14:11;;;;;;;;;3.25;2.00;;;;;24.50;45.49;100676.97;5075314;28;45405;-77
2022/08/22 08:17:23;;;;;;;;;2.75;2.00;;;;;24.68;45.25;100673.88;5073829;27;45550;-75
2022/08/22 08:19:49;;;;;;;;;2.75;1.00;;;;;25.04;45.09;100674.63;5011001;28;45611;-76
2022/08/22 08:22:21;;;;;;;;;2.00;2.00;;;;;25.33;44.68;100689.44;5011654;28;46181;-76
2022/08/22 08:24:49;;;;;;;;;3.00;1.00;;;;;25.51;43.64;100668.16;5010908;28;45726;-77
2022/08/22 08:30:39;;;;;;;;;2.25;1.00;;;;;26.58;42.31;100686.38;5014689;28;45533;-76
2022/08/22 08:33:07;;;;;;;;;2.75;2.00;;;;;26.84;41.38;100673.31;4932101;28;46115;-76
2022/08/22 08:35:39;;;;;;;;;2.00;1.75;;;;;27.04;41.87;100685.13;4932792;28;45468;-77
2022/08/22 08:38:17;;;;;;;;;4.00;1.50;;;;;27.15;40.70;100676.03;4936498;28;45457;-77
2022/08/22 08:41:01;;;;;;;;;2.00;2.00;;;;;27.31;40.01;100675.53;4942154;28;45615;-75
2022/08/22 08:43:51;;;;;;;;;3.25;2.25;;;;;27.58;40.21;100663.22;4936043;28;45461;-77
2022/08/22 08:47:01;;;;;;;;;1.50;1.00;;;;;28.10;40.72;100672.03;4935604;28;45589;-75
2022/08/22 08:49:35;;;;;;;;;2.00;2.00;;;;;28.64;38.95;100660.75;4897226;29;45508;-76
2022/08/22 08:52:21;;;;;;;;;0.00;0.00;;;;;29.62;36.77;100655.78;4897404;29;45473;-77
2022/08/22 08:55:05;;;;;;;;;1.50;1.50;;;;;30.20;35.57;100661.81;4930715;28;45492;-75
2022/08/22 08:57:45;;;;;;;;;1.00;1.00;;;;;30.92;34.48;100651.66;4934980;28;45474;-76
2022/08/22 09:00:28;;;;;;;;;0.25;0.25;;;;;31.80;33.11;100633.28;4933838;28;45595;-76
2022/08/22 09:03:04;;;;;;;;;2.50;0.75;;;;;32.46;32.68;100633.34;4934256;28;45418;-76
2022/08/22 09:05:53;;;;;;;;;2.00;0.50;;;;;33.28;31.41;100628.56;4935351;28;45586;-76
2022/08/22 09:08:37;;;;;;;;;1.75;1.00;;;;;34.07;29.75;100627.53;4937559;28;45480;-78
2022/08/22 09:11:24;;;;;;;;;2.00;2.00;;;;;34.69;28.76;100631.97;4996587;28;45444;-77
2022/08/22 09:14:01;;;;;;;;;1.50;1.50;;;;;35.04;28.67;100620.47;5015904;28;45400;-76
2022/08/22 09:16:51;;;;;;;;;2.00;2.00;;;;;35.58;27.44;100620.13;5013755;28;46200;-77
2022/08/22 09:19:40;;;;;;;;;1.00;1.00;;;;;36.12;27.85;100620.69;4993520;28;45501;-76
2022/08/22 09:22:23;;;;;;;;;3.00;2.00;;;;;36.47;26.94;100626.28;4993620;28;45392;-75
2022/08/22 09:25:10;;;;;;;;;1.75;1.00;;;;;36.68;25.31;100616.28;4993319;28;45441;-76
2022/08/22 09:28:05;;;;;;;;;1.00;1.00;;;;;37.04;25.12;100612.50;5055600;28;46217;-75
2022/08/22 09:31:12;;;;;;;;;1.75;1.75;;;;;37.25;24.65;100609.66;4992923;28;45408;-76
2022/08/22 09:33:53;;;;;;;;;1.25;1.25;;;;;37.48;24.78;100614.81;4954209;28;45677;-76
2022/08/22 09:36:40;;;;;;;;;1.00;1.00;;;;;37.57;24.50;100618.25;4954657;28;45506;-75
2022/08/22 09:40:04;;;;;;;;;1.00;1.00;;;;;37.68;24.25;100611.25;4956651;28;46298;-76
2022/08/22 09:42:43;;;;;;;;;1.00;1.00;;;;;37.62;24.52;100610.19;4884497;29;45715;-75
2022/08/22 09:46:04;;;;;;;;;3.75;2.25;;;;;37.47;24.12;100606.75;4896448;28;45465;-76
2022/08/22 09:48:40;;;;;;;;;0.25;0.00;;;;;37.57;24.42;100604.47;4784786;29;45544;-75
2022/08/22 09:51:33;;;;;;;;;1.00;1.00;;;;;37.84;24.13;100604.56;4767390;29;46485;-76
2022/08/22 09:54:18;;;;;;;;;0.75;0.00;;;;;38.01;24.16;100603.06;4767755;29;45495;-76
2022/08/22 09:56:52;;;;;;;;;1.00;1.00;;;;;38.26;22.69;100599.69;4767740;29;46512;-76
2022/08/22 09:59:42;;;;;;;;;1.00;1.00;;;;;38.34;23.60;100596.75;4767350;29;45732;-77
2022/08/22 10:02:44;;;;;;;;;2.00;1.00;;;;;38.68;23.98;100600.31;4767477;29;45500;-78
2022/08/22 10:05:25;;;;;;;;;2.00;2.00;;;;;38.81;23.76;100606.88;4767386;29;45421;-75
2022/08/22 10:07:58;;;;;;;;;0.75;0.75;;;;;38.65;23.80;100603.50;4800713;29;45489;-75
2022/08/22 10:10:55;;;;;;;;;2.00;2.00;;;;;38.70;22.65;100609.22;4823583;29;45480;-75
2022/08/22 10:13:33;;;;;;;;;0.00;0.00;;;;;38.48;23.47;100602.25;4865821;29;45428;-76
2022/08/22 10:16:05;;;;;;;;;0.00;0.00;;;;;38.34;23.65;100618.81;4896541;28;45428;-74
2022/08/22 10:18:39;;;;;;;;;1.00;1.00;;;;;38.12;23.67;100617.28;4895946;28;45480;-74
2022/08/22 10:21:14;;;;;;;;;1.00;1.00;;;;;38.13;24.36;100611.56;4912359;28;45597;-73
2022/08/22 10:23:52;;;;;;;;;0.00;0.00;;;;;38.36;24.20;100605.66;4969348;28;45637;-75
2022/08/22 10:26:33;;;;;;;;;2.00;1.00;;;;;38.55;23.83;100601.19;5054637;28;45537;-74
2022/08/22 10:29:21;;;;;;;;;0.25;0.00;;;;;38.44;23.18;100606.50;5055139;28;45387;-72
2022/08/22 10:31:56;;;;;;;;;0.00;0.00;;;;;38.54;23.66;100601.41;5055246;28;45387;-75
2022/08/22 10:34:35;;;;;;;;;1.25;1.25;;;;;38.85;23.64;100602.63;5053250;28;46153;-73
2022/08/22 10:37:15;;;;;;;;;1.00;1.00;;;;;38.64;23.10;100596.28;5054860;28;45714;-73
2022/08/22 10:39:50;;;;;;;;;0.50;0.50;;;;;37.85;23.22;100593.31;5062186;28;45628;-74
2022/08/22 10:42:35;;;;;;;;;1.00;1.00;;;;;37.39;24.67;100598.69;5058765;28;45451;-74
2022/08/22 10:45:41;;;;;;;;;1.25;0.25;;;;;37.38;24.91;100597.81;5075138;28;45566;-76
2022/08/22 10:48:09;;;;;;;;;1.00;1.00;;;;;37.80;24.83;100601.34;5074193;28;45387;-75
2022/08/22 10:50:41;;;;;;;;;0.00;0.00;;;;;37.93;23.64;100597.78;5073080;28;45522;-75
2022/08/22 10:53:33;;;;;;;;;0.25;0.25;;;;;37.71;24.00;100597.09;5074187;28;45456;-74
2022/08/22 10:56:36;;;;;;;;;0.00;0.00;;;;;37.89;24.48;100598.41;5072653;28;46008;-75
2022/08/22 10:59:07;;;;;;;;;0.00;0.00;;;;;38.28;24.22;100592.09;5073354;28;45411;-76
2022/08/22 11:01:38;;;;;;;;;0.00;0.00;;;;;38.37;24.76;100589.94;5075083;27;45504;-75
2022/08/22 11:04:09;;;;;;;;;0.75;0.75;;;;;38.49;23.82;100595.66;5073405;27;45575;-75
2022/08/22 11:06:46;;;;;;;;;1.00;1.00;;;;;38.01;24.04;100592.03;5074547;28;45371;-76
2022/08/22 11:09:29;;;;;;;;;0.25;0.25;;;;;37.10;25.37;100596.00;5076317;28;45375;-76
2022/08/22 11:11:59;;;;;;;;;0.00;0.00;;;;;37.05;25.35;100593.03;5077085;28;45456;-75
2022/08/22 11:14:58;;;;;;;;;1.00;1.00;;;;;36.99;25.50;100599.34;5060605;28;45405;-75
2022/08/22 11:18:05;;;;;;;;;0.00;0.00;;;;;36.60;26.13;100601.63;5075496;27;45434;-76
2022/08/22 11:21:14;;;;;;;;;0.00;0.00;;;;;36.16;26.59;100599.16;5011476;28;45452;-76
2022/08/22 11:24:00;;;;;;;;;2.50;1.00;;;;;36.21;26.50;100596.66;5002807;28;45455;-76
2022/08/22 11:27:18;;;;;;;;;3.00;0.00;;;;;36.31;27.46;100586.19;5011272;28;45428;-76
2022/08/22 11:30:04;;;;;;;;;2.00;1.00;;;;;36.71;26.54;100591.94;4911773;28;46023;-75
2022/08/22 11:32:45;;;;;;;;;1.00;1.00;;;;;36.97;26.12;100590.44;4914140;28;45474;-75
2022/08/22 11:35:24;;;;;;;;;1.00;1.00;;;;;37.34;25.67;100586.38;4914584;28;45422;-76
2022/08/22 11:38:00;;;;;;;;;0.00;0.00;;;;;37.26;25.08;100583.81;4913880;28;45488;-77
2022/08/22 11:40:57;;;;;;;;;0.50;0.50;;;;;37.16;26.23;100594.34;4911992;28;45486;-75
2022/08/22 11:43:38;;;;;;;;;0.00;0.00;;;;;36.86;26.54;100577.25;4912224;28;45587;-76
2022/08/22 11:46:23;;;;;;;;;0.50;0.00;;;;;36.82;26.83;100576.78;4916803;28;45626;-76
2022/08/22 11:49:12;;;;;;;;;0.25;0.25;;;;;36.06;26.30;100589.34;4914073;28;45576;-76
2022/08/22 11:52:02;;;;;;;;;0.00;0.00;;;;;35.32;27.33;100584.09;4938694;28;45445;-77
2022/08/22 11:54:56;;;;;;;;;1.00;1.00;;;;;34.55;28.87;100582.59;4952129;28;45459;-77
2022/08/22 11:57:56;;;;;;;;;1.00;1.00;;;;;34.08;29.09;100579.91;4951827;28;45516;-75
2022/08/22 12:00:44;;;;;;;;;0.50;0.50;;;;;33.61;30.49;100575.47;4952010;28;45434;-76
2022/08/22 12:03:18;;;;;;;;;0.00;0.00;;;;;33.17;30.60;100574.16;4951207;28;45517;-76
2022/08/22 12:05:48;;;;;;;;;2.00;0.00;;;;;32.98;31.21;100583.66;4958794;28;45498;-76
2022/08/22 12:08:28;;;;;;;;;0.50;0.50;;;;;32.61;31.12;100587.00;5073930;27;45497;-77
2022/08/22 12:11:41;;;;;;;;;1.00;1.00;;;;;32.26;32.15;100589.94;5064602;27;45629;-78
2022/08/22 12:14:18;;;;;;;;;0.00;0.00;;;;;32.08;33.18;100578.31;5018762;28;45542;-76
2022/08/22 12:17:05;;;;;;;;;0.00;0.00;;;;;31.97;33.48;100579.50;5014066;28;45480;-75
2022/08/22 12:20:03;;;;;;;;;0.00;0.00;;;;;31.56;33.28;100577.59;5013068;28;45486;-77
2022/08/22 12:22:38;;;;;;;;;0.00;0.00;;;;;31.55;34.86;100570.41;4953722;28;45664;-76
2022/08/22 12:25:06;;;;;;;;;1.00;1.00;;;;;31.76;33.83;100571.81;4954829;28;45641;-76
2022/08/22 12:27:46;;;;;;;;;1.25;1.00;;;;;32.04;34.10;100565.00;4955036;28;45525;-77
2022/08/22 12:30:17;;;;;;;;;0.00;0.00;;;;;32.26;33.33;100556.31;4953836;28;45608;-75
2022/08/22 12:33:14;;;;;;;;;0.75;0.75;;;;;32.59;33.03;100563.41;4954438;28;45662;-76